createdAt,value
2023-03-31T00:01:11.769Z,11.93
2023-03-31T00:03:44.531Z,12.47
2023-03-31T00:06:18.861Z,12.50
2023-03-31T00:08:51.948Z,11.40
2023-03-31T00:11:20.904Z,9.07
2023-03-31T00:13:49.180Z,9.47
2023-03-31T00:16:18.794Z,17.00
2023-03-31T00:18:51.116Z,12.80
2023-03-31T00:21:29.661Z,16.50
2023-03-31T00:23:59.663Z,15.67
2023-03-31T00:26:28.177Z,15.60
2023-03-31T00:28:56.902Z,16.80
2023-03-31T00:31:27.202Z,13.13
2023-03-31T00:33:56.405Z,11.37
2023-03-31T00:36:28.257Z,15.90
2023-03-31T00:38:59.204Z,17.60
2023-03-31T00:41:29.142Z,16.27
2023-03-31T00:44:09.356Z,16.63
2023-03-31T00:46:44.724Z,14.57
2023-03-31T00:49:20.839Z,16.83
2023-03-31T00:51:51.098Z,17.83
2023-03-31T00:54:21.570Z,15.37
2023-03-31T00:56:53.357Z,13.13
2023-03-31T00:59:27.521Z,18.43
2023-03-31T01:02:02.796Z,15.17
2023-03-31T01:04:35.700Z,19.70
2023-03-31T01:07:09.318Z,11.40
2023-03-31T01:09:38.880Z,17.80
2023-03-31T01:12:10.211Z,13.10
2023-03-31T01:14:38.432Z,20.57
2023-03-31T01:17:10.571Z,14.00
2023-03-31T01:19:57.213Z,16.83
2023-03-31T01:22:52.996Z,17.80
2023-03-31T01:25:57.737Z,12.80
2023-03-31T01:28:38.955Z,12.63
2023-03-31T01:31:33.323Z,15.10
2023-03-31T01:34:29.761Z,14.83
2023-03-31T01:37:37.678Z,14.67
2023-03-31T01:40:50.141Z,16.67
2023-03-31T01:43:24.711Z,14.97
2023-03-31T01:45:58.798Z,11.57
2023-03-31T01:48:36.815Z,11.67
2023-03-31T01:51:11.459Z,15.93
2023-03-31T01:53:50.530Z,11.70
2023-03-31T01:56:27.093Z,11.67
2023-03-31T01:58:59.473Z,10.50
2023-03-31T02:01:32.761Z,14.50
2023-03-31T02:04:09.301Z,15.30
2023-03-31T02:06:42.992Z,13.03
2023-03-31T02:09:16.758Z,9.97
2023-03-31T02:11:47.539Z,12.90
2023-03-31T02:14:21.930Z,15.37
2023-03-31T02:16:53.614Z,11.43
2023-03-31T02:19:23.436Z,10.83
2023-03-31T02:21:52.703Z,14.23
2023-03-31T02:24:24.361Z,11.23
2023-03-31T02:26:57.406Z,11.33
2023-03-31T02:29:26.027Z,14.67
2023-03-31T02:31:58.725Z,12.77
2023-03-31T02:34:27.710Z,11.70
2023-03-31T02:36:57.089Z,13.40
2023-03-31T02:39:28.827Z,12.77
2023-03-31T02:41:58.676Z,12.83
2023-03-31T02:44:27.900Z,12.07
2023-03-31T02:46:56.202Z,15.00
2023-03-31T02:49:24.850Z,14.87
2023-03-31T02:52:23.987Z,13.20
2023-03-31T02:55:26.098Z,18.87
2023-03-31T02:58:27.262Z,13.70
2023-03-31T03:01:08.615Z,11.43
2023-03-31T03:03:46.248Z,11.60
2023-03-31T03:06:27.891Z,13.93
2023-03-31T03:09:12.460Z,14.90
2023-03-31T03:11:52.760Z,13.93
2023-03-31T03:14:30.125Z,10.40
2023-03-31T03:17:02.874Z,11.33
2023-03-31T03:19:31.168Z,6.93
2023-03-31T03:21:59.437Z,10.40
2023-03-31T03:24:29.611Z,13.10
2023-03-31T03:26:58.594Z,13.43
2023-03-31T03:29:29.014Z,10.07
2023-03-31T03:31:57.308Z,10.60
2023-03-31T03:34:25.711Z,9.77
2023-03-31T03:36:53.971Z,11.50
2023-03-31T03:39:22.414Z,9.60
2023-03-31T03:41:50.646Z,9.13
2023-03-31T03:44:18.811Z,10.47
2023-03-31T03:46:48.474Z,9.53
2023-03-31T03:49:16.871Z,5.80
2023-03-31T03:51:45.090Z,8.80
2023-03-31T03:54:13.343Z,8.40
2023-03-31T03:56:41.546Z,7.20
2023-03-31T03:59:09.848Z,8.70
2023-03-31T04:01:38.411Z,5.43
2023-03-31T04:04:08.266Z,8.97
2023-03-31T04:06:37.876Z,6.57
2023-03-31T04:09:06.524Z,4.30
2023-03-31T04:11:34.818Z,4.77
2023-03-31T04:14:03.233Z,2.77
2023-03-31T04:16:32.418Z,4.37
2023-03-31T04:19:03.807Z,5.10
2023-03-31T04:21:34.890Z,2.67
2023-03-31T04:24:04.667Z,2.97
2023-03-31T04:26:42.972Z,3.57
2023-03-31T04:29:13.785Z,3.20
2023-03-31T04:31:44.062Z,3.50
2023-03-31T04:34:14.364Z,2.63
2023-03-31T04:36:47.312Z,4.07
2023-03-31T04:39:17.153Z,3.10
2023-03-31T04:41:45.791Z,2.57
2023-03-31T04:44:14.003Z,4.03
2023-03-31T04:46:42.229Z,4.50
2023-03-31T04:49:10.502Z,2.23
2023-03-31T04:51:38.720Z,3.30
2023-03-31T04:54:08.534Z,3.50
2023-03-31T04:56:36.760Z,2.63
2023-03-31T04:59:05.214Z,5.37
2023-03-31T05:01:36.415Z,2.47
2023-03-31T05:04:05.710Z,6.13
2023-03-31T05:06:34.624Z,5.83
2023-03-31T05:09:02.872Z,6.87
2023-03-31T05:11:32.466Z,3.83
2023-03-31T05:14:00.754Z,5.60
2023-03-31T05:16:29.062Z,8.00
2023-03-31T05:18:57.278Z,7.57
2023-03-31T05:21:26.892Z,8.70
2023-03-31T05:23:55.131Z,4.70
2023-03-31T05:26:25.451Z,12.20
2023-03-31T05:28:55.465Z,8.17
2023-03-31T05:31:24.308Z,9.50
2023-03-31T05:33:52.605Z,11.00
2023-03-31T05:36:23.747Z,8.77
2023-03-31T05:38:52.548Z,8.23
2023-03-31T05:41:21.231Z,7.90
2023-03-31T05:43:49.748Z,13.07
2023-03-31T05:46:19.580Z,7.43
2023-03-31T05:48:47.838Z,11.10
2023-03-31T05:51:16.183Z,10.27
2023-03-31T05:53:44.426Z,12.77
2023-03-31T05:56:13.730Z,11.27
2023-03-31T05:58:42.013Z,11.57
2023-03-31T06:01:12.003Z,12.53
2023-03-31T06:03:42.882Z,16.90
2023-03-31T06:06:14.789Z,13.20
2023-03-31T06:08:44.089Z,15.67
2023-03-31T06:11:14.394Z,16.03
2023-03-31T06:13:42.958Z,18.53
2023-03-31T06:16:12.863Z,12.50
2023-03-31T06:18:43.123Z,14.77
2023-03-31T06:21:14.327Z,13.17
2023-03-31T06:23:44.430Z,12.17
2023-03-31T06:26:14.719Z,12.73
2023-03-31T06:28:43.647Z,11.97
2023-03-31T06:31:13.565Z,12.07
2023-03-31T06:33:44.677Z,14.37
2023-03-31T06:36:15.117Z,14.23
2023-03-31T06:38:44.116Z,12.67
2023-03-31T06:41:14.236Z,14.87
2023-03-31T06:43:42.854Z,20.07
2023-03-31T06:46:11.694Z,14.97
2023-03-31T06:48:41.314Z,19.93
2023-03-31T06:51:11.516Z,15.47
2023-03-31T06:53:39.781Z,13.70
2023-03-31T06:56:08.669Z,16.90
2023-03-31T06:58:37.408Z,15.83
2023-03-31T07:01:06.994Z,19.27
2023-03-31T07:03:35.916Z,21.63
2023-03-31T07:06:04.297Z,13.10
2023-03-31T07:08:34.151Z,14.47
2023-03-31T07:11:02.591Z,18.73
2023-03-31T07:13:30.922Z,17.47
2023-03-31T07:15:59.254Z,16.43
2023-03-31T07:18:34.418Z,17.67
2023-03-31T07:21:06.546Z,20.03
2023-03-31T07:23:39.163Z,12.90
2023-03-31T07:26:07.528Z,23.93
2023-03-31T07:28:36.413Z,21.77
2023-03-31T07:31:04.904Z,24.67
2023-03-31T07:33:33.355Z,13.53
2023-03-31T07:36:12.627Z,19.03
2023-03-31T07:38:45.886Z,20.37
2023-03-31T07:41:16.822Z,17.90
2023-03-31T07:43:45.618Z,20.60
2023-03-31T07:46:19.677Z,25.07
2023-03-31T07:48:48.407Z,16.40
2023-03-31T07:51:18.515Z,19.47
2023-03-31T07:53:49.577Z,23.60
2023-03-31T07:56:18.073Z,20.60
2023-03-31T07:58:47.210Z,20.07
2023-03-31T08:01:17.853Z,16.83
2023-03-31T08:03:47.023Z,18.93
2023-03-31T08:06:19.437Z,19.53
2023-03-31T08:08:49.206Z,18.07
2023-03-31T08:11:17.678Z,22.97
2023-03-31T08:13:45.854Z,25.23
2023-03-31T08:16:14.235Z,21.03
2023-03-31T08:18:42.576Z,18.63
2023-03-31T08:21:11.039Z,19.67
2023-03-31T08:23:39.373Z,15.50
2023-03-31T08:26:12.111Z,19.97
2023-03-31T08:28:40.660Z,15.77
2023-03-31T08:31:10.466Z,17.27
2023-03-31T08:33:38.987Z,16.50
2023-03-31T08:36:10.772Z,13.33
2023-03-31T08:38:41.945Z,13.87
2023-03-31T08:41:27.298Z,15.27
2023-03-31T08:43:58.296Z,17.07
2023-03-31T08:46:30.798Z,16.73
2023-03-31T08:49:01.279Z,23.27
2023-03-31T08:51:32.656Z,16.37
2023-03-31T08:54:04.112Z,14.10
2023-03-31T08:56:37.926Z,15.03
2023-03-31T08:59:07.444Z,14.20
2023-03-31T09:01:55.630Z,11.83
2023-03-31T09:04:42.814Z,14.23
2023-03-31T09:07:17.425Z,16.30
2023-03-31T09:09:53.200Z,16.30
2023-03-31T09:12:29.702Z,16.93
2023-03-31T09:15:02.120Z,17.23
2023-03-31T09:17:34.321Z,13.30
2023-03-31T09:20:08.696Z,14.07
2023-03-31T09:22:41.037Z,16.70
2023-03-31T09:25:14.732Z,14.40
2023-03-31T09:27:47.659Z,14.53
2023-03-31T09:30:20.368Z,15.77
2023-03-31T09:32:51.286Z,11.83
2023-03-31T09:35:22.618Z,19.10
2023-03-31T09:37:51.753Z,16.97
2023-03-31T09:40:23.061Z,13.27
2023-03-31T09:42:57.898Z,11.60
2023-03-31T09:45:26.533Z,18.67
2023-03-31T09:47:58.102Z,17.87
2023-03-31T09:50:28.166Z,18.33
2023-03-31T09:52:58.874Z,14.57
2023-03-31T09:55:40.358Z,17.53
2023-03-31T09:58:14.535Z,20.60
2023-03-31T10:00:44.531Z,17.43
2023-03-31T10:03:14.964Z,19.30
2023-03-31T10:05:51.187Z,21.83
2023-03-31T10:08:24.927Z,16.00
2023-03-31T10:10:55.384Z,16.33
2023-03-31T10:13:29.400Z,19.73
2023-03-31T10:16:04.801Z,13.83
2023-03-31T10:18:36.326Z,21.63
2023-03-31T10:21:07.299Z,17.40
2023-03-31T10:23:37.015Z,19.60
2023-03-31T10:26:06.133Z,20.63
2023-03-31T10:28:38.061Z,17.13
2023-03-31T10:31:08.609Z,20.60
2023-03-31T10:33:41.921Z,19.47
2023-03-31T10:36:16.265Z,12.90
2023-03-31T10:38:46.432Z,18.73
2023-03-31T10:41:21.397Z,16.00
2023-03-31T10:43:52.655Z,17.83
2023-03-31T10:46:21.854Z,16.67
2023-03-31T10:48:52.306Z,16.37
2023-03-31T10:51:22.122Z,15.90
2023-03-31T10:53:51.945Z,17.50
2023-03-31T10:56:36.253Z,19.87
2023-03-31T10:59:20.794Z,19.23
2023-03-31T11:02:05.347Z,17.10
2023-03-31T11:04:48.180Z,13.57
2023-03-31T11:07:32.464Z,15.13
2023-03-31T11:10:24.063Z,13.80
2023-03-31T11:12:58.967Z,16.67
2023-03-31T11:15:37.193Z,13.10
2023-03-31T11:18:24.080Z,16.87
2023-03-31T11:21:02.823Z,15.07
2023-03-31T11:23:42.072Z,12.47
2023-03-31T11:26:14.021Z,13.73
2023-03-31T11:28:59.006Z,11.23
2023-03-31T11:31:40.457Z,11.77
2023-03-31T11:34:25.842Z,14.17
2023-03-31T11:37:31.827Z,14.10
2023-03-31T11:40:20.278Z,8.43
2023-03-31T11:42:51.796Z,18.53
2023-03-31T11:45:24.161Z,12.10
2023-03-31T11:47:57.854Z,13.23
2023-03-31T11:50:30.617Z,13.27
2023-03-31T11:53:03.193Z,12.80
2023-03-31T11:55:33.865Z,10.53
2023-03-31T11:58:06.594Z,11.63
2023-03-31T12:00:39.591Z,16.27
2023-03-31T12:03:14.019Z,14.03
2023-03-31T12:05:47.194Z,13.17
2023-03-31T12:08:19.157Z,10.73
2023-03-31T12:10:52.931Z,10.43
2023-03-31T12:13:45.484Z,9.27
2023-03-31T12:16:18.490Z,11.60
2023-03-31T12:19:02.313Z,11.17
2023-03-31T12:21:32.596Z,14.40
2023-03-31T12:24:00.931Z,8.40
2023-03-31T12:26:38.687Z,6.33
2023-03-31T12:29:20.825Z,11.93
2023-03-31T12:31:50.726Z,8.77
2023-03-31T12:34:24.657Z,7.00
2023-03-31T12:37:06.545Z,7.53
2023-03-31T12:39:45.996Z,7.50
2023-03-31T12:42:40.681Z,7.63
2023-03-31T12:45:19.811Z,6.10
2023-03-31T12:48:03.612Z,6.27
2023-03-31T12:50:44.171Z,5.00
2023-03-31T12:53:24.504Z,6.93
2023-03-31T12:55:58.854Z,3.23
2023-03-31T12:58:47.252Z,7.10
2023-03-31T13:01:18.007Z,5.17
2023-03-31T13:03:52.226Z,3.63
2023-03-31T13:07:00.045Z,4.83
2023-03-31T13:09:52.915Z,4.60
2023-03-31T13:12:24.040Z,6.10
2023-03-31T13:14:54.661Z,5.40
2023-03-31T13:17:27.136Z,6.10
2023-03-31T13:20:16.660Z,5.60
2023-03-31T13:22:48.665Z,6.20
2023-03-31T13:25:49.282Z,4.63
2023-03-31T13:28:43.042Z,3.43
2023-03-31T13:31:11.833Z,4.60
2023-03-31T13:33:45.716Z,4.23
2023-03-31T13:36:44.417Z,4.57
2023-03-31T13:39:44.819Z,4.30
2023-03-31T13:42:42.622Z,3.30
2023-03-31T13:45:33.726Z,5.17
2023-03-31T13:48:17.352Z,4.13
2023-03-31T13:51:01.743Z,2.83
2023-03-31T13:53:48.439Z,2.57
2023-03-31T13:56:41.608Z,2.50
2023-03-31T13:59:43.543Z,4.63
2023-03-31T14:02:52.814Z,3.50
2023-03-31T14:05:27.206Z,5.77
2023-03-31T14:07:59.691Z,4.10
2023-03-31T14:10:31.521Z,2.23
2023-03-31T14:13:09.674Z,3.10
2023-03-31T14:15:40.851Z,3.13
2023-03-31T14:18:12.534Z,4.13
2023-03-31T14:20:49.942Z,3.83
2023-03-31T14:23:30.691Z,4.53
2023-03-31T14:26:06.218Z,2.23
2023-03-31T14:28:58.205Z,2.73
2023-03-31T14:31:35.376Z,4.27
2023-03-31T14:34:29.328Z,4.77
2023-03-31T14:37:01.682Z,6.33
2023-03-31T14:39:33.540Z,2.57
2023-03-31T14:42:06.108Z,4.23
2023-03-31T14:44:37.600Z,2.50
2023-03-31T14:47:07.282Z,3.67
2023-03-31T14:49:37.668Z,3.30
2023-03-31T14:52:16.006Z,4.67
2023-03-31T14:54:47.592Z,6.03
2023-03-31T14:57:20.723Z,3.77
2023-03-31T14:59:53.296Z,4.03
2023-03-31T15:02:32.629Z,6.10
2023-03-31T15:05:04.686Z,3.40
2023-03-31T15:07:33.261Z,3.93
2023-03-31T15:10:01.953Z,3.67
2023-03-31T15:12:31.250Z,3.47
2023-03-31T15:15:05.462Z,4.40
2023-03-31T15:17:38.341Z,3.30
2023-03-31T15:20:28.068Z,5.67
2023-03-31T15:22:57.686Z,4.33
2023-03-31T15:25:30.726Z,4.10
2023-03-31T15:28:03.274Z,10.30
2023-03-31T15:30:33.578Z,7.73
2023-03-31T15:35:51.520Z,5.43
2023-03-31T15:38:20.378Z,7.90
2023-03-31T15:40:53.747Z,10.40
2023-03-31T15:43:29.624Z,7.17
2023-03-31T15:46:00.176Z,10.73
2023-03-31T15:48:33.531Z,8.97
2023-03-31T15:51:03.703Z,14.23
2023-03-31T15:53:37.288Z,8.73
2023-03-31T15:56:07.570Z,8.60
2023-03-31T15:58:55.894Z,17.30
2023-03-31T16:01:32.853Z,15.77
2023-03-31T16:04:02.746Z,14.27
2023-03-31T16:06:38.811Z,15.40
2023-03-31T16:09:09.038Z,11.57
2023-03-31T16:11:42.207Z,15.87
2023-03-31T16:14:16.159Z,11.90
2023-03-31T16:16:51.740Z,10.73
2023-03-31T16:19:23.550Z,15.17
2023-03-31T16:21:55.061Z,13.80
2023-03-31T16:24:29.840Z,10.87
2023-03-31T16:27:01.554Z,12.87
2023-03-31T16:29:30.015Z,14.83
2023-03-31T16:32:11.398Z,13.80
2023-03-31T16:34:54.032Z,11.87
2023-03-31T16:37:22.631Z,15.93
2023-03-31T16:39:51.296Z,13.00
2023-03-31T16:42:20.507Z,13.43
2023-03-31T16:44:59.863Z,16.13
2023-03-31T16:47:38.623Z,12.50
2023-03-31T16:50:08.087Z,12.90
2023-03-31T16:52:37.129Z,13.40
2023-03-31T16:55:06.362Z,12.80
2023-03-31T16:57:34.601Z,15.03
2023-03-31T17:00:02.982Z,12.57
2023-03-31T17:02:31.360Z,22.77
2023-03-31T17:05:12.547Z,15.97
2023-03-31T17:07:41.924Z,13.07
2023-03-31T17:10:11.141Z,17.00
2023-03-31T17:12:39.487Z,13.50
2023-03-31T17:15:09.113Z,12.90
2023-03-31T17:17:37.606Z,11.10
2023-03-31T17:20:09.116Z,15.47
2023-03-31T17:22:37.788Z,16.80
2023-03-31T17:25:08.034Z,15.87
2023-03-31T17:27:36.583Z,18.13
2023-03-31T17:32:39.142Z,22.03
2023-03-31T17:35:11.652Z,15.27
2023-03-31T17:37:40.091Z,12.83
2023-03-31T17:40:09.778Z,14.50
2023-03-31T17:42:38.029Z,18.63
2023-03-31T17:45:07.532Z,17.70
2023-03-31T17:47:36.099Z,17.30
2023-03-31T17:50:05.014Z,16.90
2023-03-31T17:52:35.638Z,15.20
2023-03-31T17:55:04.688Z,15.87
2023-03-31T17:57:33.298Z,18.40
2023-03-31T18:00:01.667Z,21.17
2023-03-31T18:02:38.299Z,19.20
2023-03-31T18:05:08.503Z,23.57
2023-03-31T18:07:38.806Z,18.03
2023-03-31T18:10:08.736Z,15.17
2023-03-31T18:12:37.383Z,14.60
2023-03-31T18:15:07.138Z,19.63
2023-03-31T18:17:36.486Z,17.13
2023-03-31T18:20:05.526Z,18.97
2023-03-31T18:22:33.808Z,25.63
2023-03-31T18:25:03.963Z,18.63
2023-03-31T18:27:32.934Z,19.90
2023-03-31T18:30:01.232Z,23.23
2023-03-31T18:32:29.565Z,24.37
2023-03-31T18:34:58.346Z,27.83
2023-03-31T18:37:27.342Z,25.87
2023-03-31T18:39:55.952Z,34.43
2023-03-31T18:42:26.191Z,24.40
2023-03-31T18:44:54.458Z,26.20
2023-03-31T18:47:23.353Z,20.97
2023-03-31T18:49:53.932Z,23.87
2023-03-31T18:52:22.672Z,19.87
2023-03-31T18:54:51.520Z,25.47
2023-03-31T18:57:20.429Z,27.97
2023-03-31T18:59:50.311Z,20.10
2023-03-31T19:02:18.900Z,25.27
2023-03-31T19:04:48.080Z,23.07
2023-03-31T19:07:17.615Z,28.80
2023-03-31T19:09:45.890Z,19.80
2023-03-31T19:12:14.336Z,26.80
2023-03-31T19:14:43.028Z,22.90
2023-03-31T19:17:12.989Z,23.03
2023-03-31T19:19:41.529Z,22.87
2023-03-31T19:22:09.945Z,13.37
2023-03-31T19:24:38.185Z,21.17
2023-03-31T19:27:06.450Z,20.87
2023-03-31T19:29:35.345Z,20.60
2023-03-31T19:32:04.000Z,21.93
2023-03-31T19:34:33.899Z,20.00
2023-03-31T19:37:03.838Z,23.10
2023-03-31T19:39:32.316Z,18.50
2023-03-31T19:42:00.698Z,19.17
2023-03-31T19:44:29.497Z,21.60
2023-03-31T19:46:58.758Z,26.07
2023-03-31T19:49:27.171Z,22.87
2023-03-31T19:51:57.022Z,21.77
2023-03-31T19:54:25.774Z,19.97
2023-03-31T19:56:54.071Z,12.63
2023-03-31T19:59:22.551Z,15.20
2023-03-31T20:01:51.202Z,21.20
2023-03-31T20:04:20.976Z,26.60
2023-03-31T20:06:49.645Z,16.40
2023-03-31T20:09:19.292Z,20.17
2023-03-31T20:11:47.677Z,17.93
2023-03-31T20:14:17.507Z,17.83
2023-03-31T20:16:46.123Z,18.60
2023-03-31T20:19:16.467Z,24.30
2023-03-31T20:21:46.253Z,22.53
2023-03-31T20:24:17.540Z,17.47
2023-03-31T20:26:47.552Z,17.00
2023-03-31T20:29:15.886Z,10.63
2023-03-31T20:31:44.295Z,21.00
2023-03-31T20:34:15.147Z,18.43
2023-03-31T20:36:45.014Z,16.73
2023-03-31T20:39:15.186Z,18.97
2023-03-31T20:41:44.096Z,25.20
2023-03-31T20:44:16.119Z,18.43
2023-03-31T20:46:45.134Z,19.23
2023-03-31T20:49:14.060Z,16.90
2023-03-31T20:51:42.647Z,24.07
2023-03-31T20:54:10.945Z,23.40
2023-03-31T20:56:41.518Z,19.00
2023-03-31T20:59:12.157Z,18.13
2023-03-31T21:01:42.911Z,19.50
2023-03-31T21:04:12.385Z,24.53
2023-03-31T21:06:42.759Z,21.27
2023-03-31T21:09:12.670Z,16.57
2023-03-31T21:11:41.649Z,21.60
2023-03-31T21:14:13.541Z,21.47
2023-03-31T21:16:43.697Z,23.47
2023-03-31T21:19:12.407Z,22.90
2023-03-31T21:21:43.217Z,17.83
2023-03-31T21:24:13.246Z,22.67
2023-03-31T21:26:41.865Z,24.07
2023-03-31T21:29:10.177Z,22.40
2023-03-31T21:31:38.788Z,27.20
2023-03-31T21:34:08.908Z,22.93
2023-03-31T21:36:37.227Z,24.63
2023-03-31T21:39:06.209Z,25.87
2023-03-31T21:41:34.489Z,27.43
2023-03-31T21:44:03.598Z,27.37
2023-03-31T21:46:34.180Z,21.70
2023-03-31T21:49:03.174Z,24.07
2023-03-31T21:51:32.880Z,19.53
2023-03-31T21:54:01.320Z,26.47
2023-03-31T21:56:32.185Z,20.17
2023-03-31T21:59:04.150Z,23.07
2023-03-31T22:01:32.540Z,21.97
2023-03-31T22:04:01.658Z,19.53
2023-03-31T22:06:29.914Z,20.20
2023-03-31T22:08:59.509Z,19.87
2023-03-31T22:11:28.443Z,20.07
2023-03-31T22:13:57.281Z,18.13
2023-03-31T22:16:25.613Z,17.97
2023-03-31T22:18:55.729Z,27.70
2023-03-31T22:21:41.306Z,19.80
2023-03-31T22:24:13.657Z,16.37
2023-03-31T22:26:42.072Z,15.37
2023-03-31T22:29:13.795Z,13.43
2023-03-31T22:31:42.131Z,13.10
2023-03-31T22:34:10.430Z,11.67
2023-03-31T22:36:38.698Z,21.33
2023-03-31T22:39:06.971Z,16.87
2023-03-31T22:41:36.673Z,21.93
2023-03-31T22:44:04.920Z,14.23
2023-03-31T22:46:33.520Z,17.70
2023-03-31T22:49:01.836Z,18.77
2023-03-31T22:51:30.122Z,17.37
2023-03-31T22:53:59.119Z,16.33
2023-03-31T22:56:27.705Z,17.27
2023-03-31T22:58:58.045Z,16.83
2023-03-31T23:01:26.610Z,15.57
2023-03-31T23:03:55.737Z,14.70
2023-03-31T23:06:24.295Z,17.13
2023-03-31T23:08:52.600Z,15.27
2023-03-31T23:11:20.848Z,12.93
2023-03-31T23:13:49.188Z,14.73
2023-03-31T23:16:20.784Z,15.40
2023-03-31T23:18:51.715Z,16.83
2023-03-31T23:21:22.556Z,15.73
2023-03-31T23:23:53.759Z,11.03
2023-03-31T23:26:22.522Z,14.07
2023-03-31T23:28:51.368Z,19.30
2023-03-31T23:31:23.055Z,15.77
2023-03-31T23:33:51.465Z,13.07
2023-03-31T23:36:21.312Z,15.30
2023-03-31T23:38:50.637Z,16.87
2023-03-31T23:41:19.491Z,14.77
2023-03-31T23:43:47.982Z,20.80
2023-03-31T23:46:16.207Z,21.23
2023-03-31T23:48:46.282Z,16.03
2023-03-31T23:51:14.789Z,16.73
2023-03-31T23:53:43.008Z,18.00
2023-03-31T23:56:13.126Z,21.63
2023-03-31T23:58:43.006Z,18.70
